createdAt,value
2023-03-12T00:01:59.777Z,60.72
2023-03-12T00:04:26.978Z,60.75
2023-03-12T00:06:53.772Z,60.93
2023-03-12T00:09:20.176Z,61.25
2023-03-12T00:11:46.606Z,61.40
2023-03-12T00:14:13.003Z,61.52
2023-03-12T00:16:39.349Z,61.30
2023-03-12T00:19:05.928Z,61.60
2023-03-12T00:21:32.422Z,61.29
2023-03-12T00:24:00.156Z,61.23
2023-03-12T00:26:26.669Z,61.60
2023-03-12T00:28:53.659Z,61.57
2023-03-12T00:31:29.415Z,61.65
2023-03-12T00:33:56.643Z,61.90
2023-03-12T00:36:26.755Z,61.64
2023-03-12T00:38:54.407Z,61.59
2023-03-12T00:41:22.300Z,62.07
2023-03-12T00:43:50.179Z,62.07
2023-03-12T00:46:17.313Z,61.88
2023-03-12T00:48:44.705Z,62.45
2023-03-12T00:51:11.992Z,62.70
2023-03-12T00:53:39.161Z,62.47
2023-03-12T00:56:06.238Z,62.79
2023-03-12T00:58:32.780Z,63.31
2023-03-12T01:00:59.604Z,63.43
2023-03-12T01:03:26.167Z,63.61
2023-03-12T01:05:55.422Z,63.28
2023-03-12T01:08:22.477Z,63.99
2023-03-12T01:10:48.993Z,63.84
2023-03-12T01:13:15.732Z,63.69
2023-03-12T01:15:42.109Z,63.47
2023-03-12T01:18:08.516Z,63.42
2023-03-12T01:20:34.933Z,62.84
2023-03-12T01:23:01.339Z,62.50
2023-03-12T01:25:27.930Z,62.33
2023-03-12T01:27:54.302Z,61.75
2023-03-12T01:30:20.831Z,61.52
2023-03-12T01:32:47.356Z,61.11
2023-03-12T01:35:13.857Z,61.13
2023-03-12T01:37:40.300Z,60.78
2023-03-12T01:40:07.214Z,61.39
2023-03-12T01:42:33.735Z,61.75
2023-03-12T01:45:03.454Z,61.62
2023-03-12T01:47:33.525Z,60.98
2023-03-12T01:50:00.867Z,61.09
2023-03-12T01:52:31.950Z,60.77
2023-03-12T01:55:12.749Z,60.61
2023-03-12T01:57:50.608Z,60.66
2023-03-12T02:00:23.304Z,60.47
2023-03-12T02:02:52.442Z,60.51
2023-03-12T02:05:33.870Z,60.60
2023-03-12T02:08:00.698Z,60.68
2023-03-12T02:10:27.442Z,60.78
2023-03-12T02:12:54.086Z,60.21
2023-03-12T02:15:20.458Z,60.67
2023-03-12T02:17:46.947Z,61.25
2023-03-12T02:20:40.531Z,60.95
2023-03-12T02:23:13.156Z,61.15
2023-03-12T02:25:49.765Z,60.37
2023-03-12T02:28:19.842Z,60.25
2023-03-12T02:30:50.409Z,60.30
2023-03-12T02:33:16.769Z,60.27
2023-03-12T02:35:43.561Z,60.29
2023-03-12T02:38:46.812Z,59.90
2023-03-12T02:41:28.424Z,60.44
2023-03-12T02:44:12.733Z,60.07
2023-03-12T02:46:45.023Z,60.15
2023-03-12T02:49:13.228Z,59.56
2023-03-12T02:51:41.458Z,60.15
2023-03-12T02:54:08.682Z,59.70
2023-03-12T02:56:35.566Z,59.73
2023-03-12T02:59:04.405Z,59.78
2023-03-12T03:01:34.089Z,59.51
2023-03-12T03:04:02.453Z,59.79
2023-03-12T03:06:28.991Z,59.64
2023-03-12T03:08:55.533Z,59.86
2023-03-12T03:11:24.323Z,59.39
2023-03-12T03:13:54.993Z,59.56
2023-03-12T03:16:22.788Z,59.45
2023-03-12T03:18:49.468Z,59.34
2023-03-12T03:21:16.904Z,59.23
2023-03-12T03:23:45.424Z,59.34
2023-03-12T03:26:11.736Z,59.96
2023-03-12T03:28:38.534Z,59.93
2023-03-12T03:31:05.719Z,59.51
2023-03-12T03:33:34.467Z,60.03
2023-03-12T03:36:01.869Z,59.46
2023-03-12T03:38:30.221Z,59.81
2023-03-12T03:40:57.020Z,60.09
2023-03-12T03:43:23.894Z,59.96
2023-03-12T03:45:57.920Z,60.01
2023-03-12T03:48:24.474Z,60.20
2023-03-12T03:50:50.868Z,60.47
2023-03-12T03:53:19.340Z,60.27
2023-03-12T03:55:46.212Z,60.68
2023-03-12T03:58:12.999Z,60.51
2023-03-12T04:00:39.415Z,60.91
2023-03-12T04:03:05.881Z,60.21
2023-03-12T04:05:32.324Z,59.62
2023-03-12T04:08:03.147Z,60.37
2023-03-12T04:10:30.291Z,59.75
2023-03-12T04:12:56.670Z,60.34
2023-03-12T04:15:23.122Z,60.52
2023-03-12T04:17:49.803Z,60.01
2023-03-12T04:20:16.370Z,60.86
2023-03-12T04:22:42.904Z,60.45
2023-03-12T04:25:09.543Z,60.53
2023-03-12T04:27:35.893Z,60.18
2023-03-12T04:30:02.491Z,60.27
2023-03-12T04:32:28.895Z,60.14
2023-03-12T04:34:55.303Z,59.73
2023-03-12T04:37:21.888Z,59.29
2023-03-12T04:39:48.321Z,59.96
2023-03-12T04:42:14.691Z,59.79
2023-03-12T04:44:41.819Z,59.80
2023-03-12T04:47:08.188Z,59.20
2023-03-12T04:49:35.001Z,59.33
2023-03-12T04:52:01.915Z,58.70
2023-03-12T04:54:28.332Z,57.59
2023-03-12T04:56:54.684Z,58.56
2023-03-12T04:59:21.078Z,58.11
2023-03-12T05:01:47.635Z,58.62
2023-03-12T05:04:14.534Z,59.59
2023-03-12T05:06:41.038Z,60.10
2023-03-12T05:09:07.547Z,59.73
2023-03-12T05:11:34.311Z,59.78
2023-03-12T05:14:00.680Z,59.53
2023-03-12T05:16:27.897Z,59.02
2023-03-12T05:18:54.330Z,58.43
2023-03-12T05:21:21.009Z,58.60
2023-03-12T05:23:48.149Z,58.64
2023-03-12T05:26:18.991Z,58.96
2023-03-12T05:28:45.419Z,59.38
2023-03-12T05:31:13.047Z,59.32
2023-03-12T05:33:39.859Z,59.86
2023-03-12T05:36:06.839Z,59.68
2023-03-12T05:38:33.384Z,59.43
2023-03-12T05:41:00.165Z,60.67
2023-03-12T05:43:27.721Z,61.28
2023-03-12T05:45:54.448Z,62.01
2023-03-12T05:48:20.947Z,62.23
2023-03-12T05:50:47.358Z,62.25
2023-03-12T05:53:13.747Z,62.00
2023-03-12T05:55:40.690Z,61.69
2023-03-12T05:58:07.623Z,61.98
2023-03-12T06:00:38.154Z,62.16
2023-03-12T06:03:05.543Z,62.48
2023-03-12T06:05:33.319Z,62.56
2023-03-12T06:08:00.143Z,62.54
2023-03-12T06:10:26.867Z,62.74
2023-03-12T06:12:53.326Z,62.23
2023-03-12T06:15:19.730Z,62.18
2023-03-12T06:17:46.131Z,62.20
2023-03-12T06:20:12.928Z,61.56
2023-03-12T06:22:39.334Z,61.65
2023-03-12T06:25:06.351Z,62.26
2023-03-12T06:27:32.765Z,60.91
2023-03-12T06:29:59.222Z,61.68
2023-03-12T06:32:26.135Z,61.76
2023-03-12T06:34:52.726Z,62.60
2023-03-12T06:37:19.193Z,63.22
2023-03-12T06:39:45.610Z,63.57
2023-03-12T06:42:13.054Z,64.01
2023-03-12T06:44:39.430Z,64.54
2023-03-12T06:47:05.910Z,64.28
2023-03-12T06:49:33.294Z,64.83
2023-03-12T06:51:59.729Z,64.55
2023-03-12T06:54:26.121Z,64.36
2023-03-12T06:56:53.244Z,64.45
2023-03-12T06:59:21.608Z,65.34
2023-03-12T07:01:48.894Z,65.12
2023-03-12T07:04:15.302Z,65.48
2023-03-12T07:06:42.085Z,65.75
2023-03-12T07:09:08.541Z,64.82
2023-03-12T07:11:35.346Z,65.01
2023-03-12T07:14:03.300Z,64.88
2023-03-12T07:16:30.951Z,64.54
2023-03-12T07:18:57.388Z,65.02
2023-03-12T07:21:23.860Z,65.38
2023-03-12T07:23:50.813Z,65.16
2023-03-12T07:26:17.727Z,64.53
2023-03-12T07:28:44.113Z,64.81
2023-03-12T07:31:10.586Z,64.83
2023-03-12T07:33:37.463Z,64.21
2023-03-12T07:36:04.502Z,64.70
2023-03-12T07:38:31.691Z,64.43
2023-03-12T07:40:59.001Z,64.29
2023-03-12T07:43:25.736Z,64.17
2023-03-12T07:45:52.194Z,63.81
2023-03-12T07:48:20.065Z,63.43
2023-03-12T07:50:46.586Z,62.90
2023-03-12T07:53:13.053Z,61.86
2023-03-12T07:55:39.520Z,61.92
2023-03-12T07:58:06.188Z,61.10
2023-03-12T08:00:32.676Z,60.21
2023-03-12T08:02:59.250Z,59.34
2023-03-12T08:05:27.019Z,58.22
2023-03-12T08:07:53.512Z,58.02
2023-03-12T08:10:21.560Z,58.25
2023-03-12T08:12:49.069Z,58.58
2023-03-12T08:15:15.862Z,58.34
2023-03-12T08:17:42.458Z,56.55
2023-03-12T08:20:10.138Z,56.26
2023-03-12T08:22:37.853Z,56.60
2023-03-12T08:25:05.695Z,57.07
2023-03-12T08:27:32.313Z,56.15
2023-03-12T08:29:58.676Z,55.84
2023-03-12T08:32:25.508Z,55.85
2023-03-12T08:34:52.089Z,55.94
2023-03-12T08:37:18.540Z,54.99
2023-03-12T08:39:45.173Z,54.68
2023-03-12T08:42:11.628Z,54.11
2023-03-12T08:44:38.040Z,54.59
2023-03-12T08:47:04.651Z,54.63
2023-03-12T08:49:31.084Z,54.60
2023-03-12T08:51:57.437Z,54.46
2023-03-12T08:54:23.797Z,54.33
2023-03-12T08:56:52.138Z,53.50
2023-03-12T08:59:20.611Z,53.28
2023-03-12T09:01:47.016Z,52.61
2023-03-12T09:04:13.452Z,52.08
2023-03-12T09:06:39.855Z,50.23
2023-03-12T09:09:08.927Z,50.40
2023-03-12T09:11:37.189Z,50.33
2023-03-12T09:14:39.441Z,51.54
2023-03-12T09:16:50.207Z,49.81
2023-03-12T09:19:16.730Z,49.85
2023-03-12T09:21:43.536Z,50.83
2023-03-12T09:24:11.183Z,50.37
2023-03-12T09:26:37.566Z,50.66
2023-03-12T09:29:04.092Z,51.12
2023-03-12T09:31:30.474Z,52.42
2023-03-12T09:33:56.987Z,52.67
2023-03-12T09:36:23.355Z,53.22
2023-03-12T09:38:49.742Z,53.79
2023-03-12T09:41:26.477Z,52.63
2023-03-12T09:44:01.757Z,51.44
2023-03-12T09:46:38.882Z,50.71
2023-03-12T09:49:15.507Z,50.96
2023-03-12T09:51:47.332Z,52.90
2023-03-12T09:54:36.568Z,52.67
2023-03-12T09:57:09.312Z,51.01
2023-03-12T09:59:37.026Z,48.46
2023-03-12T10:02:06.459Z,48.16
2023-03-12T10:05:00.139Z,47.56
2023-03-12T10:07:38.375Z,46.27
2023-03-12T10:10:25.698Z,45.98
2023-03-12T10:13:28.270Z,46.84
2023-03-12T10:16:07.395Z,48.52
2023-03-12T10:18:48.411Z,48.79
2023-03-12T10:21:27.626Z,49.33
2023-03-12T10:24:25.532Z,49.42
2023-03-12T10:26:56.180Z,50.94
2023-03-12T10:29:26.528Z,52.01
2023-03-12T10:32:05.170Z,53.11
2023-03-12T10:34:50.816Z,52.74
2023-03-12T10:37:22.854Z,54.14
2023-03-12T10:39:50.218Z,53.19
2023-03-12T10:42:28.832Z,52.45
2023-03-12T10:45:26.772Z,52.56
2023-03-12T10:47:57.450Z,54.56
2023-03-12T10:50:29.644Z,56.67
2023-03-12T10:53:20.325Z,57.94
2023-03-12T10:56:06.515Z,59.20
2023-03-12T10:58:35.637Z,58.98
2023-03-12T11:01:03.861Z,59.74
2023-03-12T11:03:31.028Z,59.79
2023-03-12T11:06:01.075Z,57.74
2023-03-12T11:08:33.181Z,57.55
2023-03-12T11:11:01.681Z,58.08
2023-03-12T11:13:37.958Z,58.09
2023-03-12T11:16:16.638Z,56.79
2023-03-12T11:19:03.985Z,56.73
2023-03-12T11:21:35.292Z,56.17
2023-03-12T11:24:11.426Z,56.68
2023-03-12T11:26:52.772Z,57.04
2023-03-12T11:29:26.914Z,57.40
2023-03-12T11:32:21.510Z,58.56
2023-03-12T11:34:49.543Z,58.77
2023-03-12T11:37:41.724Z,58.38
2023-03-12T11:40:27.059Z,56.27
2023-03-12T11:43:43.622Z,56.30
2023-03-12T11:46:28.925Z,53.97
2023-03-12T11:48:55.258Z,53.23
2023-03-12T11:51:38.302Z,53.12
2023-03-12T11:54:38.580Z,53.51
2023-03-12T11:57:24.642Z,53.27
2023-03-12T12:00:13.841Z,53.37
2023-03-12T12:03:10.818Z,53.98
2023-03-12T12:05:48.705Z,53.29
2023-03-12T12:08:43.191Z,53.81
2023-03-12T12:11:16.946Z,52.70
2023-03-12T12:13:57.836Z,52.25
2023-03-12T12:16:37.197Z,51.84
2023-03-12T12:19:25.783Z,50.80
2023-03-12T12:22:06.758Z,50.58
2023-03-12T12:25:22.607Z,50.88
2023-03-12T12:28:21.177Z,50.49
2023-03-12T12:31:09.159Z,50.45
2023-03-12T12:33:50.687Z,50.99
2023-03-12T12:36:18.668Z,51.13
2023-03-12T12:39:06.010Z,50.23
2023-03-12T12:41:37.959Z,50.10
2023-03-12T12:44:15.775Z,50.40
2023-03-12T12:46:52.054Z,49.78
2023-03-12T12:49:28.919Z,49.53
2023-03-12T12:52:01.200Z,50.70
2023-03-12T12:55:08.674Z,49.88
2023-03-12T12:57:59.016Z,50.57
2023-03-12T13:00:47.370Z,50.66
2023-03-12T13:03:23.561Z,48.87
2023-03-12T13:05:54.647Z,46.49
2023-03-12T13:08:50.503Z,46.32
2023-03-12T13:11:20.397Z,45.41
2023-03-12T13:14:02.536Z,46.70
2023-03-12T13:16:35.092Z,46.59
2023-03-12T13:19:20.137Z,46.81
2023-03-12T13:22:23.392Z,46.72
2023-03-12T13:25:24.360Z,47.45
2023-03-12T13:27:59.116Z,48.05
2023-03-12T13:30:34.342Z,48.62
2023-03-12T13:33:03.601Z,48.82
2023-03-12T13:35:39.083Z,49.00
2023-03-12T13:38:12.132Z,49.75
2023-03-12T13:40:53.542Z,49.55
2023-03-12T13:43:41.816Z,52.06
2023-03-12T13:46:27.335Z,53.62
2023-03-12T13:49:00.044Z,52.64
2023-03-12T13:51:27.351Z,51.51
2023-03-12T13:53:58.754Z,50.18
2023-03-12T13:56:28.961Z,49.25
2023-03-12T13:59:00.431Z,48.31
2023-03-12T14:01:41.571Z,48.58
2023-03-12T14:04:15.423Z,49.17
2023-03-12T14:07:20.316Z,47.27
2023-03-12T14:10:08.709Z,48.93
2023-03-12T14:13:24.388Z,50.58
2023-03-12T14:16:09.360Z,50.88
2023-03-12T14:18:38.801Z,52.17
2023-03-12T14:21:13.578Z,53.30
2023-03-12T14:23:49.283Z,52.57
2023-03-12T14:26:21.260Z,52.47
2023-03-12T14:28:52.271Z,52.13
2023-03-12T14:31:23.826Z,51.04
2023-03-12T14:34:00.137Z,50.74
2023-03-12T14:36:49.194Z,50.71
2023-03-12T14:39:30.331Z,50.87
2023-03-12T14:42:05.350Z,51.18
2023-03-12T14:44:34.167Z,50.56
2023-03-12T14:47:03.570Z,51.34
2023-03-12T14:49:31.194Z,51.32
2023-03-12T14:51:57.727Z,50.82
2023-03-12T14:54:27.856Z,51.28
2023-03-12T14:56:54.329Z,50.51
2023-03-12T14:59:28.022Z,50.67
2023-03-12T15:02:18.716Z,51.66
2023-03-12T15:04:46.206Z,52.02
2023-03-12T15:07:18.222Z,52.20
2023-03-12T15:09:48.070Z,52.34
2023-03-12T15:12:26.624Z,51.62
2023-03-12T15:15:04.334Z,51.62
2023-03-12T15:17:31.883Z,50.46
2023-03-12T15:19:58.590Z,50.24
2023-03-12T15:22:27.767Z,49.55
2023-03-12T15:24:54.286Z,49.60
2023-03-12T15:27:25.493Z,49.48
2023-03-12T15:29:52.602Z,50.48
2023-03-12T15:32:22.538Z,50.43
2023-03-12T15:34:49.698Z,50.50
2023-03-12T15:37:38.205Z,50.99
2023-03-12T15:40:17.701Z,51.64
2023-03-12T15:42:46.950Z,52.27
2023-03-12T15:45:21.679Z,51.34
2023-03-12T15:47:50.002Z,51.51
2023-03-12T15:50:31.803Z,50.87
2023-03-12T15:53:05.920Z,50.37
2023-03-12T15:55:34.008Z,50.17
2023-03-12T15:58:00.816Z,49.86
2023-03-12T16:00:44.866Z,49.39
2023-03-12T16:03:19.905Z,50.16
2023-03-12T16:05:48.402Z,49.08
2023-03-12T16:08:36.541Z,49.37
2023-03-12T16:11:03.202Z,49.20
2023-03-12T16:13:31.824Z,49.08
2023-03-12T16:15:58.524Z,49.00
2023-03-12T16:18:24.995Z,48.93
2023-03-12T16:20:52.869Z,49.43
2023-03-12T16:23:19.715Z,49.63
2023-03-12T16:25:48.676Z,48.91
2023-03-12T16:28:18.992Z,48.63
2023-03-12T16:30:45.968Z,49.66
2023-03-12T16:33:14.161Z,50.26
2023-03-12T16:35:40.577Z,49.53
2023-03-12T16:38:07.295Z,49.40
2023-03-12T16:40:35.945Z,49.36
2023-03-12T16:43:05.827Z,49.59
2023-03-12T16:45:36.076Z,49.20
2023-03-12T16:48:05.435Z,49.53
2023-03-12T16:50:31.973Z,49.45
2023-03-12T16:52:58.740Z,49.79
2023-03-12T16:55:37.562Z,49.51
2023-03-12T16:58:05.183Z,49.65
2023-03-12T17:00:34.075Z,49.50
2023-03-12T17:03:00.845Z,49.73
2023-03-12T17:05:29.102Z,49.89
2023-03-12T17:07:56.456Z,50.39
2023-03-12T17:10:24.065Z,50.67
2023-03-12T17:12:50.792Z,50.37
2023-03-12T17:15:21.240Z,50.13
2023-03-12T17:17:49.112Z,50.22
2023-03-12T17:20:17.075Z,50.32
2023-03-12T17:22:44.024Z,50.08
2023-03-12T17:25:26.499Z,49.75
2023-03-12T17:27:53.877Z,49.87
2023-03-12T17:30:21.954Z,50.74
2023-03-12T17:32:49.193Z,49.99
2023-03-12T17:35:15.905Z,50.12
2023-03-12T17:37:42.283Z,50.44
2023-03-12T17:40:09.905Z,50.07
2023-03-12T17:42:38.039Z,50.40
2023-03-12T17:45:06.481Z,49.83
2023-03-12T17:47:32.901Z,50.16
2023-03-12T17:49:59.304Z,49.86
2023-03-12T17:52:25.829Z,50.25
2023-03-12T17:54:52.310Z,50.47
2023-03-12T17:57:18.676Z,50.30
2023-03-12T17:59:45.070Z,50.82
2023-03-12T18:02:14.240Z,50.97
2023-03-12T18:04:40.794Z,50.81
2023-03-12T18:07:07.280Z,51.12
2023-03-12T18:09:33.651Z,51.08
2023-03-12T18:12:00.065Z,51.09
2023-03-12T18:14:26.591Z,51.06
2023-03-12T18:16:53.059Z,51.28
2023-03-12T18:19:19.842Z,51.73
2023-03-12T18:21:46.600Z,51.28
2023-03-12T18:24:14.417Z,51.37
2023-03-12T18:26:41.015Z,51.34
2023-03-12T18:29:07.371Z,51.43
2023-03-12T18:31:33.779Z,51.42
2023-03-12T18:34:00.244Z,51.70
2023-03-12T18:36:26.711Z,52.09
2023-03-12T18:38:53.072Z,51.92
2023-03-12T18:41:19.609Z,52.34
2023-03-12T18:43:45.976Z,52.02
2023-03-12T18:46:13.047Z,51.93
2023-03-12T18:48:41.347Z,52.03
2023-03-12T18:51:08.760Z,51.84
2023-03-12T18:53:35.189Z,51.99
2023-03-12T18:56:01.752Z,52.03
2023-03-12T18:58:28.470Z,52.51
2023-03-12T19:00:56.499Z,52.30
2023-03-12T19:03:23.976Z,52.17
2023-03-12T19:06:02.039Z,52.48
2023-03-12T19:08:29.363Z,52.53
2023-03-12T19:10:55.777Z,52.51
2023-03-12T19:13:22.307Z,52.35
2023-03-12T19:15:48.790Z,52.55
2023-03-12T19:18:15.242Z,53.05
2023-03-12T19:20:41.612Z,52.98
2023-03-12T19:23:07.954Z,52.67
2023-03-12T19:25:34.347Z,53.10
2023-03-12T19:28:00.733Z,52.79
2023-03-12T19:30:30.479Z,52.85
2023-03-12T19:32:56.932Z,53.09
2023-03-12T19:35:23.401Z,52.68
2023-03-12T19:37:49.816Z,53.42
2023-03-12T19:40:16.825Z,53.54
2023-03-12T19:42:43.252Z,53.16
2023-03-12T19:45:10.651Z,53.59
2023-03-12T19:47:37.180Z,53.26
2023-03-12T19:50:03.761Z,53.43
2023-03-12T19:52:30.180Z,53.32
2023-03-12T19:55:04.382Z,53.75
2023-03-12T19:57:32.089Z,54.71
2023-03-12T19:59:58.499Z,54.40
2023-03-12T20:02:25.874Z,53.98
2023-03-12T20:04:52.512Z,53.98
2023-03-12T20:07:18.907Z,54.57
2023-03-12T20:09:45.293Z,54.44
2023-03-12T20:12:11.651Z,53.86
2023-03-12T20:14:38.097Z,54.17
2023-03-12T20:17:04.505Z,54.30
2023-03-12T20:19:30.945Z,53.77
2023-03-12T20:21:57.341Z,53.89
2023-03-12T20:24:24.085Z,53.85
2023-03-12T20:26:50.459Z,53.84
2023-03-12T20:29:16.955Z,53.91
2023-03-12T20:31:43.484Z,54.29
2023-03-12T20:34:10.038Z,53.98
2023-03-12T20:36:36.408Z,54.74
2023-03-12T20:39:02.920Z,55.65
2023-03-12T20:41:29.475Z,55.94
2023-03-12T20:43:57.421Z,55.66
2023-03-12T20:46:24.145Z,56.33
2023-03-12T20:48:51.075Z,56.38
2023-03-12T20:51:17.542Z,56.79
2023-03-12T20:53:44.013Z,56.81
2023-03-12T20:56:11.007Z,56.97
2023-03-12T20:58:37.482Z,56.73
2023-03-12T21:01:05.818Z,57.08
2023-03-12T21:03:32.530Z,56.96
2023-03-12T21:06:00.657Z,57.06
2023-03-12T21:08:28.143Z,57.76
2023-03-12T21:10:54.907Z,58.17
2023-03-12T21:13:23.052Z,57.97
2023-03-12T21:15:50.203Z,57.88
2023-03-12T21:18:17.878Z,58.30
2023-03-12T21:20:44.702Z,57.93
2023-03-12T21:23:11.891Z,57.25
2023-03-12T21:25:40.763Z,57.64
2023-03-12T21:28:08.880Z,57.23
2023-03-12T21:30:36.360Z,56.92
2023-03-12T21:33:03.108Z,56.94
2023-03-12T21:35:30.688Z,56.58
2023-03-12T21:37:57.409Z,56.39
2023-03-12T21:40:24.031Z,56.78
2023-03-12T21:42:50.619Z,56.44
2023-03-12T21:45:17.185Z,56.94
2023-03-12T21:47:43.611Z,56.71
2023-03-12T21:50:10.941Z,56.54
2023-03-12T21:52:47.578Z,56.74
2023-03-12T21:55:14.626Z,57.36
2023-03-12T21:57:41.017Z,57.03
2023-03-12T22:00:12.403Z,56.64
2023-03-12T22:02:41.128Z,56.65
2023-03-12T22:05:08.846Z,56.47
2023-03-12T22:07:35.381Z,56.28
2023-03-12T22:10:02.283Z,56.07
2023-03-12T22:12:28.665Z,56.23
2023-03-12T22:14:55.025Z,56.48
2023-03-12T22:17:21.419Z,56.22
2023-03-12T22:19:47.861Z,56.02
2023-03-12T22:22:14.663Z,56.02
2023-03-12T22:24:41.171Z,55.90
2023-03-12T22:27:07.742Z,55.46
2023-03-12T22:29:34.616Z,55.52
2023-03-12T22:32:01.205Z,55.29
2023-03-12T22:34:29.439Z,55.32
2023-03-12T22:36:55.861Z,55.75
2023-03-12T22:39:22.334Z,55.78
2023-03-12T22:41:50.663Z,55.92
2023-03-12T22:44:17.172Z,56.12
2023-03-12T22:46:43.575Z,56.36
2023-03-12T22:49:10.078Z,56.28
2023-03-12T22:51:36.572Z,56.01
2023-03-12T22:54:03.034Z,56.17
2023-03-12T22:56:29.485Z,56.94
2023-03-12T22:58:55.883Z,57.09
2023-03-12T23:01:23.072Z,57.48
2023-03-12T23:03:50.645Z,57.99
2023-03-12T23:06:29.706Z,58.45
2023-03-12T23:08:56.859Z,58.52
2023-03-12T23:11:25.366Z,59.01
2023-03-12T23:13:53.072Z,59.05
2023-03-12T23:16:22.124Z,59.01
2023-03-12T23:18:48.928Z,59.52
2023-03-12T23:21:17.974Z,59.45
2023-03-12T23:23:45.210Z,60.47
2023-03-12T23:26:18.150Z,59.72
2023-03-12T23:28:47.072Z,59.21
2023-03-12T23:31:14.666Z,58.23
2023-03-12T23:33:41.225Z,57.39
2023-03-12T23:36:13.661Z,56.58
2023-03-12T23:38:40.470Z,55.88
2023-03-12T23:41:11.373Z,55.59
2023-03-12T23:43:37.720Z,55.11
2023-03-12T23:46:05.907Z,54.96
2023-03-12T23:48:35.934Z,54.39
2023-03-12T23:51:18.488Z,54.43
2023-03-12T23:53:47.565Z,54.43
2023-03-12T23:56:17.479Z,54.29
2023-03-12T23:58:44.912Z,53.91
